Capitol Logistics 7445

Operating for MZN



KPDX
Portland International Airport
Portland, Oregon
KBWI
Baltimore/Washington International Thurgood Marshall Airport
Baltimore, Maryland

Activity Log

Date Flight Route Aircraft Duration
No Flights Yet

Route Details

Aircraft Information
Primary: Boeing 767-300BDSF
Backup: Boeing 757-200SF
Route Data
Distance: 2046nm
Duration: 4h 26m
Recm'd Route: BTG J16 PDT J16 BIL J16 DPR MCW DBQ JOT J30 MOPER J30 WHETT J64 FWA AIR KEMAN ANTHM3
Origin Wx: KPDX 141853Z 32007KT 10SM CLR 16/M04 A3014 RMK AO2 SLP206 T01611044
Dest. Wx: KBWI 141854Z 19003KT 7SM -RA FEW047 BKN060 OVC095 16/12 A3002 RMK AO2 RAB08 SLP164 P0001 T01560117
Notes: